Time;durP1;ratioP1;P1;durP2;ratioP2;P2;SDS_P1;SDS_P2;PMS_P1;PMS_P2;Temp;Humidity;BMP_temperature;BMP_pressure;BME280_temperature;BME280_humidity;BME280_pressure;Samples;Min_cycle;Max_cycle;Signal;HPM_P1;HPM_P2
2023/10/12 00:03:32;;;;;;;7.18;2.40;;;;;;;19.55;100.00;97979.44;15263150;19;20081;-47
2023/10/12 00:08:57;;;;;;;6.72;2.22;;;;;;;19.58;100.00;97991.78;15266028;19;20066;-46
2023/10/12 00:14:28;;;;;;;6.25;2.20;;;;;;;19.55;100.00;97981.34;15263297;19;20085;-45
2023/10/12 00:19:53;;;;;;;7.97;2.30;;;;;;;19.53;100.00;97967.09;15265688;19;20043;-46
2023/10/12 00:25:20;;;;;;;8.93;2.50;;;;;;;19.53;100.00;97978.84;15256361;19;20017;-46
2023/10/12 00:30:49;;;;;;;7.15;2.30;;;;;;;19.51;100.00;97967.31;15261512;19;20022;-48
2023/10/12 00:36:22;;;;;;;7.68;2.10;;;;;;;19.49;100.00;97965.88;15279153;19;20046;-44
2023/10/12 00:41:51;;;;;;;8.80;2.42;;;;;;;19.43;100.00;97947.69;15276575;19;20017;-48
2023/10/12 00:47:29;;;;;;;4.95;2.30;;;;;;;19.40;100.00;97941.59;15281189;19;20078;-47
2023/10/12 00:52:57;;;;;;;8.25;2.13;;;;;;;19.34;100.00;97948.00;15274746;19;20018;-47
2023/10/12 00:58:22;;;;;;;4.60;2.00;;;;;;;19.21;100.00;97946.25;15274464;19;20017;-49
2023/10/12 01:03:52;;;;;;;5.35;2.00;;;;;;;19.08;100.00;97935.50;15268137;19;20026;-44
2023/10/12 01:09:26;;;;;;;6.30;2.08;;;;;;;18.92;100.00;97929.56;15277557;19;20039;-47
2023/10/12 01:14:54;;;;;;;6.97;2.40;;;;;;;18.74;100.00;97935.84;15278905;19;20022;-44
2023/10/12 01:20:26;;;;;;;5.05;2.20;;;;;;;18.65;100.00;97934.47;15275284;19;20388;-47
2023/10/12 01:26:03;;;;;;;7.32;2.40;;;;;;;18.47;100.00;97922.47;15275042;19;20021;-50
2023/10/12 01:31:30;;;;;;;5.75;2.20;;;;;;;18.38;100.00;97912.94;15272560;19;20022;-55
2023/10/12 01:36:57;;;;;;;9.48;2.20;;;;;;;18.33;100.00;97920.94;15272435;19;20010;-52
2023/10/12 01:42:26;;;;;;;6.25;2.20;;;;;;;18.34;100.00;97917.16;15274356;19;20014;-52
2023/10/12 01:47:55;;;;;;;7.25;2.20;;;;;;;18.34;100.00;97922.59;15277621;19;20014;-53
2023/10/12 01:53:26;;;;;;;5.82;2.35;;;;;;;18.27;100.00;97921.84;15273260;19;20487;-50
2023/10/12 01:58:53;;;;;;;6.90;2.58;;;;;;;18.17;100.00;97920.44;15276671;19;20478;-48
2023/10/12 02:04:19;;;;;;;5.95;2.38;;;;;;;18.10;100.00;97921.56;15266624;19;20050;-45
2023/10/12 02:09:44;;;;;;;3.35;2.00;;;;;;;18.01;100.00;97932.72;15268157;19;20026;-47
2023/10/12 02:15:15;;;;;;;6.03;2.30;;;;;;;17.89;100.00;97923.56;15274368;19;20483;-48
2023/10/12 02:20:59;;;;;;;7.75;2.42;;;;;;;17.82;100.00;97930.97;15272607;19;20038;-49
2023/10/12 02:26:35;;;;;;;5.53;2.38;;;;;;;17.75;100.00;97933.72;15273928;19;20035;-54
2023/10/12 02:32:16;;;;;;;6.38;2.00;;;;;;;17.83;100.00;97928.00;15274306;19;20074;-52
2023/10/12 02:37:42;;;;;;;8.55;2.20;;;;;;;17.95;100.00;97930.88;15263431;19;20029;-51
2023/10/12 02:43:10;;;;;;;6.85;2.13;;;;;;;18.09;100.00;97942.53;15271833;19;20056;-51
2023/10/12 02:48:39;;;;;;;6.80;2.20;;;;;;;18.21;100.00;97933.63;15273950;19;20035;-52
2023/10/12 02:54:04;;;;;;;5.15;2.13;;;;;;;18.24;100.00;97938.63;15269920;19;20081;-51
2023/10/12 02:59:29;;;;;;;5.60;2.40;;;;;;;18.26;100.00;97922.91;15269734;19;20359;-51
2023/10/12 03:04:57;;;;;;;7.28;2.33;;;;;;;18.17;100.00;97934.06;15261285;19;20949;-48
2023/10/12 03:10:29;;;;;;;6.30;2.15;;;;;;;18.05;100.00;97941.28;15254491;19;20022;-53
2023/10/12 03:16:03;;;;;;;8.05;2.40;;;;;;;17.99;100.00;97937.56;15269642;19;20246;-48
2023/10/12 03:21:33;;;;;;;4.78;2.20;;;;;;;17.95;100.00;97940.91;15269035;19;20077;-49
2023/10/12 03:27:11;;;;;;;8.88;2.22;;;;;;;17.96;100.00;97932.53;15270081;19;20045;-51
2023/10/12 03:32:36;;;;;;;7.75;2.00;;;;;;;17.97;100.00;97941.56;15268504;19;20031;-51
2023/10/12 03:38:12;;;;;;;5.85;2.25;;;;;;;17.95;100.00;97943.66;15268953;19;20082;-49
2023/10/12 03:43:39;;;;;;;5.57;2.15;;;;;;;17.91;100.00;97942.44;15261109;19;20014;-54
2023/10/12 03:49:16;;;;;;;5.35;2.20;;;;;;;17.83;100.00;97944.34;15268737;19;20467;-49
2023/10/12 03:54:55;;;;;;;6.00;2.35;;;;;;;17.76;100.00;97931.84;15263748;19;20038;-50
2023/10/12 04:00:32;;;;;;;7.45;2.30;;;;;;;17.73;100.00;97935.00;15264262;19;20019;-49
2023/10/12 04:06:04;;;;;;;6.30;2.22;;;;;;;17.76;100.00;97937.31;15265554;19;20016;-49
2023/10/12 04:11:50;;;;;;;6.03;2.20;;;;;;;17.78;100.00;97933.28;15273336;19;20018;-50
2023/10/12 04:23:43;;;;;;;6.05;2.35;;;;;;;17.80;100.00;97957.59;15275367;19;20034;-48
2023/10/12 04:29:09;;;;;;;4.68;1.90;;;;;;;17.79;100.00;97961.38;15279346;19;20010;-48
2023/10/12 04:34:46;;;;;;;6.28;2.20;;;;;;;17.76;100.00;97976.25;15272580;19;20023;-49
2023/10/12 04:40:32;;;;;;;5.05;2.17;;;;;;;17.84;100.00;97972.44;15274771;19;20014;-47
2023/10/12 04:46:26;;;;;;;5.47;2.17;;;;;;;17.85;100.00;97980.41;15270138;19;20011;-49
2023/10/12 04:52:05;;;;;;;5.15;2.15;;;;;;;17.85;100.00;97994.03;15276632;19;20108;-48
2023/10/12 04:57:31;;;;;;;5.13;2.20;;;;;;;17.89;100.00;97991.69;15281090;19;20109;-49
2023/10/12 05:03:22;;;;;;;9.55;2.20;;;;;;;17.96;100.00;98000.66;15275954;19;20018;-49
2023/10/12 05:08:46;;;;;;;4.97;2.10;;;;;;;18.05;100.00;98011.34;15277677;19;20011;-50
2023/10/12 05:14:15;;;;;;;5.50;2.38;;;;;;;18.04;100.00;98015.97;15273347;19;20014;-49
2023/10/12 05:19:42;;;;;;;5.85;2.20;;;;;;;18.06;100.00;98034.81;15267010;19;20021;-49
2023/10/12 05:25:10;;;;;;;6.75;2.10;;;;;;;17.97;100.00;98058.75;15273790;19;20089;-51
2023/10/12 05:30:37;;;;;;;6.43;2.30;;;;;;;17.93;100.00;98060.25;15278104;19;20090;-51
2023/10/12 05:36:08;;;;;;;6.68;2.15;;;;;;;17.82;100.00;98065.28;15276558;19;20474;-48
2023/10/12 05:41:34;;;;;;;6.80;2.00;;;;;;;17.82;100.00;98068.03;15274052;19;20535;-52
2023/10/12 05:47:02;;;;;;;6.65;2.38;;;;;;;17.82;100.00;98078.09;15269155;19;20010;-53
2023/10/12 05:52:33;;;;;;;7.85;2.28;;;;;;;17.73;100.00;98085.66;15270430;19;20761;-50
2023/10/12 05:58:11;;;;;;;4.32;2.05;;;;;;;17.71;100.00;98091.34;15277455;19;20069;-54
2023/10/12 06:03:37;;;;;;;5.55;2.05;;;;;;;17.75;100.00;98093.66;15267278;19;20022;-50
2023/10/12 06:09:11;;;;;;;7.43;2.00;;;;;;;17.76;100.00;98109.78;15272580;19;20473;-50
2023/10/12 06:14:52;;;;;;;5.57;2.10;;;;;;;17.65;100.00;98127.59;15270662;19;20483;-51
2023/10/12 06:20:30;;;;;;;6.07;2.10;;;;;;;17.59;100.00;98150.28;15267386;19;20033;-50
2023/10/12 06:25:58;;;;;;;7.85;2.50;;;;;;;17.56;100.00;98167.88;15265385;19;20094;-51
2023/10/12 06:31:25;;;;;;;4.25;2.30;;;;;;;17.50;100.00;98173.34;15268870;19;20022;-49
2023/10/12 06:36:57;;;;;;;5.07;2.00;;;;;;;17.50;100.00;98170.63;15267743;19;20029;-50
2023/10/12 06:42:29;;;;;;;5.93;2.10;;;;;;;17.48;100.00;98178.97;15270763;19;20275;-52
2023/10/12 06:48:09;;;;;;;6.47;2.20;;;;;;;17.51;100.00;98189.47;15272214;19;20010;-51
2023/10/12 06:53:36;;;;;;;5.60;2.20;;;;;;;17.49;100.00;98190.72;15263583;19;20029;-50
2023/10/12 06:59:13;;;;;;;6.15;2.30;;;;;;;17.48;100.00;98170.81;15267759;19;20019;-50
2023/10/12 07:04:53;;;;;;;6.45;2.30;;;;;;;17.48;100.00;98159.91;15268666;19;20090;-50
2023/10/12 07:10:27;;;;;;;6.88;2.00;;;;;;;17.48;100.00;98159.09;15267584;19;20078;-50
2023/10/12 07:15:57;;;;;;;4.60;2.03;;;;;;;17.48;100.00;98161.81;15269336;19;20025;-51
2023/10/12 07:21:23;;;;;;;4.65;2.03;;;;;;;17.44;100.00;98146.94;15242521;19;20021;-52
2023/10/12 07:26:50;;;;;;;5.85;2.25;;;;;;;17.49;100.00;98188.81;15255464;19;20014;-50
2023/10/12 07:32:31;;;;;;;6.00;2.20;;;;;;;17.50;100.00;98198.69;15262826;19;20411;-51
2023/10/12 07:37:58;;;;;;;6.75;2.20;;;;;;;17.47;100.00;98229.06;15267658;19;20054;-51
2023/10/12 07:43:23;;;;;;;6.95;1.90;;;;;;;17.50;100.00;98247.69;15272765;19;20019;-51
2023/10/12 07:48:51;;;;;;;5.28;2.17;;;;;;;17.54;100.00;98240.78;15283788;19;20094;-51
2023/10/12 07:54:42;;;;;;;4.72;1.85;;;;;;;17.61;100.00;98234.50;15277080;19;20018;-50
2023/10/12 08:06:07;;;;;;;4.53;1.83;;;;;;;17.69;100.00;98239.75;15275744;19;20396;-50
2023/10/12 08:11:34;;;;;;;4.00;1.90;;;;;;;17.67;100.00;98236.38;15279243;19;20066;-50
2023/10/12 08:22:46;;;;;;;3.28;1.52;;;;;;;17.59;100.00;98242.03;15278506;19;20916;-51
2023/10/12 08:28:21;;;;;;;4.18;1.70;;;;;;;17.51;100.00;98233.03;15270986;19;20021;-49
2023/10/12 08:34:00;;;;;;;3.08;1.50;;;;;;;17.37;100.00;98234.09;15264628;19;20033;-52
2023/10/12 08:39:37;;;;;;;3.10;1.58;;;;;;;17.29;100.00;98232.41;15273074;19;20447;-50
2023/10/12 08:45:09;;;;;;;2.88;1.40;;;;;;;17.24;100.00;98243.94;15277464;19;20014;-54
2023/10/12 08:56:15;;;;;;;2.90;1.33;;;;;;;17.23;100.00;98239.53;15269467;19;20078;-49
2023/10/12 09:01:42;;;;;;;3.53;1.48;;;;;;;17.25;100.00;98248.31;15270339;19;20426;-51
2023/10/12 09:07:12;;;;;;;4.43;1.52;;;;;;;17.25;100.00;98242.88;15262284;19;20019;-52
2023/10/12 09:12:40;;;;;;;4.75;1.60;;;;;;;17.23;100.00;98242.25;15270047;19;20063;-51
2023/10/12 09:18:09;;;;;;;3.72;1.58;;;;;;;17.22;100.00;98243.31;15279196;19;20028;-50
2023/10/12 09:23:46;;;;;;;3.72;1.38;;;;;;;17.24;100.00;98257.53;15275540;19;20015;-51
2023/10/12 09:29:27;;;;;;;3.83;1.50;;;;;;;17.32;100.00;98259.22;15276831;19;20557;-52
2023/10/12 09:35:11;;;;;;;5.55;1.60;;;;;;;17.37;100.00;98264.03;15273670;19;20358;-51
2023/10/12 09:40:39;;;;;;;3.42;1.50;;;;;;;17.40;100.00;98263.63;15266421;19;20085;-52
2023/10/12 09:46:12;;;;;;;4.00;1.58;;;;;;;17.38;100.00;98271.16;15273608;19;20025;-50
2023/10/12 09:51:42;;;;;;;4.13;1.63;;;;;;;17.39;100.00;98278.28;15275947;19;20010;-50
2023/10/12 09:57:19;;;;;;;6.95;1.60;;;;;;;17.41;100.00;98284.38;15278326;19;20022;-51
2023/10/12 10:02:49;;;;;;;3.72;1.55;;;;;;;17.42;100.00;98275.16;15273484;19;20015;-52
2023/10/12 10:08:17;;;;;;;2.78;1.40;;;;;;;17.43;100.00;98275.97;15266468;19;20020;-48
2023/10/12 10:13:53;;;;;;;4.13;1.58;;;;;;;17.42;100.00;98280.59;15265368;19;20111;-47
2023/10/12 10:19:23;;;;;;;3.72;1.40;;;;;;;17.42;100.00;98280.59;15279660;19;20374;-48
2023/10/12 10:24:57;;;;;;;3.83;1.25;;;;;;;17.40;100.00;98277.25;15275563;19;20021;-48
2023/10/12 10:30:27;;;;;;;2.70;1.30;;;;;;;17.39;100.00;98281.00;15305038;19;20002;-49
2023/10/12 10:47:15;;;;;;;5.10;1.63;;;;;;;17.38;100.00;98307.41;15347042;19;20345;-52
2023/10/12 10:52:44;;;;;;;4.10;1.65;;;;;;;17.25;100.00;98313.66;15334572;19;20014;-53
2023/10/12 10:58:14;;;;;;;3.58;1.60;;;;;;;17.12;100.00;98320.97;15339350;19;20010;-52
2023/10/12 11:03:39;;;;;;;3.37;1.63;;;;;;;16.85;100.00;98316.28;15330229;19;20036;-51
2023/10/12 11:09:06;;;;;;;7.25;1.92;;;;;;;16.67;100.00;98327.72;15334569;19;20259;-51
2023/10/12 11:14:42;;;;;;;4.15;1.90;;;;;;;16.55;100.00;98340.22;15334824;19;20006;-51
2023/10/12 11:20:35;;;;;;;6.65;2.00;;;;;;;16.45;100.00;98352.31;15339951;19;20010;-49
2023/10/12 11:26:17;;;;;;;5.35;1.95;;;;;;;16.36;100.00;98375.25;15344802;19;20346;-51
2023/10/12 11:31:48;;;;;;;5.85;1.92;;;;;;;16.27;100.00;98385.47;15356250;19;20347;-54
2023/10/12 11:37:16;;;;;;;4.63;1.90;;;;;;;16.20;100.00;98392.72;15359918;19;20022;-55
2023/10/12 11:42:54;;;;;;;5.20;1.92;;;;;;;16.08;100.00;98405.19;15364088;19;20018;-50
2023/10/12 11:48:32;;;;;;;6.78;1.98;;;;;;;16.01;100.00;98408.69;15363621;19;20006;-51
2023/10/12 11:53:57;;;;;;;4.60;1.90;;;;;;;15.97;100.00;98412.84;15293717;19;20023;-54
2023/10/12 11:59:31;;;;;;;6.40;2.30;;;;;;;15.97;100.00;98426.41;15279616;19;20015;-52
2023/10/12 12:04:58;;;;;;;4.85;2.25;;;;;;;15.94;100.00;98426.81;15281572;19;20081;-53
2023/10/12 12:10:37;;;;;;;4.35;2.15;;;;;;;15.93;100.00;98441.44;15279068;19;20029;-50
2023/10/12 12:16:07;;;;;;;4.78;2.25;;;;;;;15.89;100.00;98442.88;15272279;19;20026;-47
2023/10/12 12:21:36;;;;;;;5.05;2.25;;;;;;;15.87;100.00;98469.38;15271646;19;20612;-51
2023/10/12 12:27:01;;;;;;;5.10;2.30;;;;;;;15.86;100.00;98474.00;15278577;19;20045;-50
2023/10/12 12:32:26;;;;;;;6.72;2.60;;;;;;;15.78;100.00;98478.66;15277063;19;20375;-49
2023/10/12 12:38:05;;;;;;;6.57;2.58;;;;;;;15.74;100.00;98488.22;15278161;19;20024;-48
2023/10/12 12:43:33;;;;;;;7.93;2.60;;;;;;;15.70;100.00;98504.06;15273365;19;20010;-53
2023/10/12 12:49:00;;;;;;;5.15;2.22;;;;;;;15.71;100.00;98493.00;15271112;19;20078;-49
2023/10/12 12:54:27;;;;;;;5.13;2.40;;;;;;;15.79;100.00;98486.63;15267843;19;20015;-47
2023/10/12 12:59:54;;;;;;;7.32;2.45;;;;;;;15.88;100.00;98492.81;15271801;19;20101;-50
2023/10/12 13:05:19;;;;;;;5.75;2.50;;;;;;;15.97;100.00;98486.19;15274651;19;20018;-53
2023/10/12 13:10:46;;;;;;;5.65;2.40;;;;;;;16.02;100.00;98489.19;15275620;19;20369;-48
2023/10/12 13:16:14;;;;;;;5.68;2.38;;;;;;;16.10;100.00;98492.78;15271609;19;20010;-51
2023/10/12 13:21:41;;;;;;;7.88;2.50;;;;;;;16.16;100.00;98492.84;15258428;19;20018;-49
2023/10/12 13:27:16;;;;;;;6.22;2.63;;;;;;;16.31;100.00;98505.53;15267545;19;20014;-46
2023/10/12 13:32:48;;;;;;;5.80;2.42;;;;;;;16.46;100.00;98505.44;15266923;19;20478;-49
2023/10/12 13:38:16;;;;;;;5.10;2.33;;;;;;;16.52;100.00;98499.22;15270596;19;20366;-48
2023/10/12 13:43:48;;;;;;;6.10;2.58;;;;;;;16.56;100.00;98505.09;15267760;19;20025;-48
2023/10/12 13:49:13;;;;;;;6.18;2.40;;;;;;;16.63;100.00;98484.22;15271090;19;20020;-46
2023/10/12 13:54:41;;;;;;;3.50;2.10;;;;;;;16.82;100.00;98490.00;15262980;19;20021;-46
2023/10/12 14:00:17;;;;;;;5.55;2.20;;;;;;;17.23;100.00;98451.88;15266039;19;20010;-47
2023/10/12 14:05:42;;;;;;;6.55;2.40;;;;;;;17.81;100.00;98442.41;15270572;19;20006;-49
2023/10/12 14:11:10;;;;;;;8.48;2.75;;;;;;;18.26;100.00;98428.19;15270432;19;20031;-46
2023/10/12 14:16:37;;;;;;;5.13;2.00;;;;;;;18.54;100.00;98418.91;15268535;19;20479;-52
2023/10/12 14:22:03;;;;;;;4.38;1.90;;;;;;;18.31;100.00;98390.22;15263911;19;20029;-52
2023/10/12 14:27:29;;;;;;;4.32;2.03;;;;;;;18.13;100.00;98404.50;15266525;19;20014;-49
2023/10/12 14:32:57;;;;;;;8.13;2.40;;;;;;;17.94;100.00;98388.94;15262087;19;20018;-49
2023/10/12 14:38:25;;;;;;;4.95;1.90;;;;;;;17.80;100.00;98391.69;15268346;19;20039;-49
2023/10/12 14:43:53;;;;;;;5.57;2.30;;;;;;;17.68;100.00;98386.00;15264442;19;20018;-52
2023/10/12 14:49:21;;;;;;;4.10;2.05;;;;;;;17.61;100.00;98392.47;15266431;19;20018;-50
2023/10/12 14:54:46;;;;;;;6.15;2.15;;;;;;;17.52;100.00;98373.63;15258979;19;20014;-51
2023/10/12 15:00:22;;;;;;;4.65;2.05;;;;;;;17.50;100.00;98381.16;15259407;19;20029;-53
2023/10/12 15:05:51;;;;;;;4.95;2.42;;;;;;;17.44;100.00;98365.66;15266824;19;20011;-47
2023/10/12 15:11:17;;;;;;;5.53;2.10;;;;;;;17.39;100.00;98369.00;15265238;19;20014;-49
2023/10/12 15:16:42;;;;;;;5.53;2.15;;;;;;;17.32;100.00;98368.13;15265643;19;20011;-52
2023/10/12 15:22:12;;;;;;;4.35;2.08;;;;;;;17.29;100.00;98395.78;15258342;19;20018;-51
2023/10/12 15:27:38;;;;;;;3.60;1.73;;;;;;;17.23;100.00;98377.56;15273441;19;20037;-53
2023/10/12 15:33:04;;;;;;;4.85;2.20;;;;;;;17.15;100.00;98386.75;15272988;19;20377;-51
2023/10/12 15:38:34;;;;;;;5.93;2.50;;;;;;;17.04;100.00;98371.00;15277627;19;20023;-49
2023/10/12 15:43:59;;;;;;;5.70;2.40;;;;;;;16.92;100.00;98373.47;15276587;19;20011;-50
2023/10/12 15:49:24;;;;;;;6.50;2.50;;;;;;;16.83;100.00;98342.00;15281578;19;20010;-51
2023/10/12 15:54:51;;;;;;;5.47;2.45;;;;;;;16.73;100.00;98358.72;15271288;19;20010;-50
2023/10/12 16:00:25;;;;;;;5.95;2.47;;;;;;;16.62;100.00;98352.81;15269322;19;20035;-50
2023/10/12 16:05:56;;;;;;;5.43;2.30;;;;;;;16.53;100.00;98367.59;15270706;19;20072;-52
2023/10/12 16:11:24;;;;;;;5.85;2.25;;;;;;;16.44;100.00;98372.41;15274838;19;20018;-53
2023/10/12 16:16:50;;;;;;;6.63;2.28;;;;;;;16.39;100.00;98379.47;15275202;19;20021;-48
2023/10/12 16:22:15;;;;;;;6.85;2.42;;;;;;;16.34;100.00;98361.03;15272940;19;20018;-49
2023/10/12 16:27:45;;;;;;;6.70;2.50;;;;;;;16.31;100.00;98367.69;15277905;19;20471;-53
2023/10/12 16:33:10;;;;;;;6.00;2.10;;;;;;;16.28;100.00;98364.56;15268708;19;20037;-47
2023/10/12 16:38:42;;;;;;;4.38;2.40;;;;;;;16.25;100.00;98373.09;15269287;19;20018;-48
2023/10/12 16:44:10;;;;;;;5.18;2.38;;;;;;;16.18;100.00;98378.50;15273062;19;20040;-49
2023/10/12 16:49:34;;;;;;;6.32;2.35;;;;;;;16.12;100.00;98392.88;15252846;19;20025;-47
2023/10/12 16:55:04;;;;;;;5.28;2.38;;;;;;;16.12;100.00;98384.72;15272872;19;20023;-50
2023/10/12 17:00:32;;;;;;;6.35;2.70;;;;;;;16.11;100.00;98399.34;15271018;19;20018;-51
2023/10/12 17:05:58;;;;;;;7.55;2.65;;;;;;;16.05;100.00;98400.16;15267087;19;20022;-52
2023/10/12 17:11:22;;;;;;;6.43;2.55;;;;;;;16.00;100.00;98409.72;15268165;19;20019;-52
2023/10/12 17:16:50;;;;;;;4.95;2.38;;;;;;;15.93;100.00;98408.84;15275834;19;20489;-52
2023/10/12 17:22:16;;;;;;;4.82;2.63;;;;;;;15.86;100.00;98413.38;15269895;19;20036;-50
2023/10/12 17:27:43;;;;;;;6.38;2.60;;;;;;;15.82;100.00;98417.47;15274367;19;20038;-52
2023/10/12 17:33:10;;;;;;;5.80;2.60;;;;;;;15.81;100.00;98404.94;15270618;19;20014;-54
2023/10/12 17:38:35;;;;;;;7.20;2.83;;;;;;;15.76;100.00;98396.53;15263860;19;20007;-51
2023/10/12 17:44:01;;;;;;;6.30;2.70;;;;;;;15.75;100.00;98395.72;15265043;19;20112;-53
2023/10/12 17:49:30;;;;;;;5.88;2.70;;;;;;;15.72;100.00;98387.94;15268843;19;20022;-49
2023/10/12 17:54:56;;;;;;;4.55;2.70;;;;;;;15.70;100.00;98393.53;15271816;19;20049;-49
2023/10/12 18:00:22;;;;;;;7.13;3.03;;;;;;;15.64;100.00;98388.91;15270778;19;20034;-48
2023/10/12 18:05:49;;;;;;;6.72;2.83;;;;;;;15.62;100.00;98374.69;15271512;19;20018;-50
2023/10/12 18:11:16;;;;;;;6.45;2.90;;;;;;;15.57;100.00;98385.31;15265667;19;20090;-50
2023/10/12 18:16:42;;;;;;;6.03;2.90;;;;;;;15.54;100.00;98401.97;15264650;19;20019;-48
2023/10/12 18:22:11;;;;;;;5.63;3.00;;;;;;;15.53;100.00;98400.28;15267319;19;20033;-52
2023/10/12 18:27:36;;;;;;;5.72;2.45;;;;;;;15.58;100.00;98400.56;15271807;19;20010;-50
2023/10/12 18:33:01;;;;;;;9.60;2.70;;;;;;;15.63;100.00;98383.69;15264091;19;20090;-54
2023/10/12 18:38:30;;;;;;;6.43;3.10;;;;;;;15.67;100.00;98388.53;15267873;19;20026;-48
2023/10/12 18:43:55;;;;;;;5.13;2.60;;;;;;;15.70;100.00;98392.72;15256886;19;20013;-51
2023/10/12 18:49:20;;;;;;;4.50;2.90;;;;;;;15.70;100.00;98401.69;15263356;19;20479;-54
2023/10/12 18:54:48;;;;;;;5.13;2.80;;;;;;;15.72;100.00;98401.53;15265684;19;20037;-52
2023/10/12 19:00:19;;;;;;;7.13;2.80;;;;;;;15.74;100.00;98409.47;15271337;19;20010;-53
2023/10/12 19:05:45;;;;;;;6.05;2.80;;;;;;;15.75;100.00;98408.44;15282185;19;20025;-48
2023/10/12 19:11:13;;;;;;;3.80;2.38;;;;;;;15.77;100.00;98414.50;15281482;19;20014;-52
2023/10/12 19:16:38;;;;;;;4.32;2.53;;;;;;;15.78;100.00;98411.59;15273776;19;20370;-52
2023/10/12 19:21:58;;;;;;;4.70;2.83;;;;;;;15.78;100.00;98410.75;15273169;19;20022;-52
2023/10/12 19:27:27;;;;;;;5.30;2.63;;;;;;;15.76;100.00;98416.38;15279243;19;20014;-52
2023/10/12 19:32:52;;;;;;;4.32;2.70;;;;;;;15.76;100.00;98412.81;15274809;19;20063;-51
2023/10/12 19:38:20;;;;;;;5.57;2.90;;;;;;;15.74;100.00;98425.75;15278913;19;20074;-49
2023/10/12 19:43:50;;;;;;;5.85;3.13;;;;;;;15.74;100.00;98423.03;15276393;19;20602;-50
2023/10/12 19:49:16;;;;;;;6.45;2.70;;;;;;;15.74;100.00;98426.63;15280384;19;20014;-49
2023/10/12 19:54:41;;;;;;;7.05;2.85;;;;;;;15.74;100.00;98433.91;15270121;19;20010;-51
2023/10/12 20:00:24;;;;;;;5.65;2.75;;;;;;;15.73;100.00;98435.78;15277190;19;20347;-48
2023/10/12 20:05:55;;;;;;;6.32;3.10;;;;;;;15.74;100.00;98432.06;15278147;19;20014;-52
2023/10/12 20:11:20;;;;;;;7.97;3.10;;;;;;;15.80;100.00;98431.25;15272183;19;20367;-50
2023/10/12 20:16:48;;;;;;;5.57;2.97;;;;;;;15.79;100.00;98421.41;15272281;19;20591;-52
2023/10/12 20:22:13;;;;;;;6.15;3.00;;;;;;;15.80;100.00;98431.25;15276731;19;20022;-53
2023/10/12 20:27:39;;;;;;;5.80;3.55;;;;;;;15.79;100.00;98431.47;15271907;19;20549;-50
2023/10/12 20:33:07;;;;;;;6.97;4.40;;;;;;;15.80;100.00;98419.56;15274095;19;20025;-53
2023/10/12 20:38:38;;;;;;;6.07;3.67;;;;;;;15.79;100.00;98426.03;15269872;19;20588;-51
2023/10/12 20:44:04;;;;;;;5.90;3.40;;;;;;;15.81;100.00;98426.69;15270753;19;20010;-51
2023/10/12 20:49:33;;;;;;;4.38;2.90;;;;;;;15.83;100.00;98421.88;15270483;19;20019;-47
2023/10/12 20:55:00;;;;;;;5.07;2.97;;;;;;;15.85;100.00;98422.53;15271387;19;20102;-49
2023/10/12 21:00:25;;;;;;;5.85;3.10;;;;;;;15.85;100.00;98422.53;15274114;19;20631;-46
2023/10/12 21:05:54;;;;;;;5.88;3.05;;;;;;;15.85;100.00;98417.97;15271679;19;20020;-47
2023/10/12 21:11:21;;;;;;;4.97;2.53;;;;;;;15.85;100.00;98423.41;15272177;19;20043;-52
2023/10/12 21:16:49;;;;;;;4.47;2.70;;;;;;;15.87;100.00;98415.06;15273445;19;20025;-49
2023/10/12 21:22:22;;;;;;;4.47;2.60;;;;;;;15.87;100.00;98412.34;15263381;19;20017;-48
2023/10/12 21:27:48;;;;;;;3.78;2.53;;;;;;;15.77;100.00;98409.06;15265980;19;20006;-53
2023/10/12 21:33:16;;;;;;;5.13;2.33;;;;;;;15.72;100.00;98412.38;15272511;19;20106;-49
2023/10/12 21:38:51;;;;;;;4.93;2.35;;;;;;;15.66;100.00;98413.16;15268931;19;20046;-52
2023/10/12 21:44:19;;;;;;;3.20;1.90;;;;;;;15.65;100.00;98406.88;15270082;19;20476;-50
2023/10/12 21:49:46;;;;;;;3.03;1.98;;;;;;;15.66;100.00;98408.56;15271106;19;20028;-48
2023/10/12 21:55:14;;;;;;;3.15;1.83;;;;;;;15.67;100.00;98414.84;15265108;19;20023;-51
2023/10/12 22:00:57;;;;;;;2.03;1.83;;;;;;;15.67;100.00;98415.69;15265833;19;20035;-52
2023/10/12 22:06:22;;;;;;;3.50;2.00;;;;;;;15.69;100.00;98413.63;15270126;19;20047;-49
2023/10/12 22:11:50;;;;;;;4.43;2.10;;;;;;;15.75;100.00;98411.16;15270329;19;20482;-52
2023/10/12 22:17:17;;;;;;;3.38;1.88;;;;;;;15.78;100.00;98402.63;15262411;19;20033;-52
2023/10/12 22:22:41;;;;;;;3.80;1.90;;;;;;;15.82;100.00;98404.75;15263474;19;20018;-49
2023/10/12 22:28:11;;;;;;;3.88;1.88;;;;;;;15.86;100.00;98394.34;15264410;19;20031;-50
2023/10/12 22:33:35;;;;;;;2.65;1.70;;;;;;;15.89;100.00;98399.41;15261586;19;20028;-50
2023/10/12 22:39:08;;;;;;;2.65;1.90;;;;;;;15.91;100.00;98394.63;15266780;19;20011;-50
2023/10/12 22:44:35;;;;;;;2.25;1.67;;;;;;;15.93;100.00;98399.84;15266645;19;20035;-53
2023/10/12 22:50:00;;;;;;;2.95;1.70;;;;;;;15.94;100.00;98405.06;15266483;19;20018;-52
2023/10/12 22:55:26;;;;;;;3.67;2.13;;;;;;;15.94;100.00;98415.94;15267080;19;20049;-53
2023/10/12 23:00:56;;;;;;;3.22;1.80;;;;;;;15.90;100.00;98409.22;15259894;19;20031;-50
2023/10/12 23:06:21;;;;;;;2.70;2.05;;;;;;;15.82;100.00;98409.31;15260999;19;20050;-51
2023/10/12 23:11:48;;;;;;;3.70;1.92;;;;;;;15.78;100.00;98411.59;15265278;19;20094;-51
2023/10/12 23:17:20;;;;;;;3.92;2.10;;;;;;;15.79;100.00;98426.84;15266439;19;20094;-51
2023/10/12 23:22:46;;;;;;;3.75;2.25;;;;;;;15.80;100.00;98431.25;15263293;19;20018;-53
2023/10/12 23:28:14;;;;;;;2.50;1.95;;;;;;;15.85;100.00;98433.41;15265410;19;20471;-49
2023/10/12 23:33:44;;;;;;;3.80;2.25;;;;;;;15.86;100.00;98435.09;15255162;19;20465;-53
2023/10/12 23:39:16;;;;;;;3.08;1.98;;;;;;;15.87;100.00;98431.34;15258604;19;20029;-49
2023/10/12 23:44:56;;;;;;;3.30;2.10;;;;;;;15.89;100.00;98432.00;15261269;19;20037;-47
2023/10/12 23:50:30;;;;;;;4.00;1.88;;;;;;;15.91;100.00;98432.66;15278832;19;20074;-49
2023/10/12 23:55:57;;;;;;;2.20;2.00;;;;;;;15.93;100.00;98422.44;15277893;19;20029;-48
